This is the latest recevied weather packets stored in our database for station/object YO4TNV-15. If no packets are shown the sender has not sent any weather packets the latest 10 day(s).
| Time | Temp. | Humidity | Pressure | Rain* | Wind** | Luminosity | Snow |
|---|---|---|---|---|---|---|---|
| 1777882039 | 25.56° C | 29% | 1003 hPa | - | - | - | - |
| 1777882029 | 25.56° C | 29% | 1003 hPa | - | - | - | - |
| 1777881138 | 23.33° C | 31% | 1002.8 hPa | - | - | - | - |
| 1777881129 | 23.33° C | 31% | 1002.8 hPa | - | - | - | - |
| 1777880238 | 25.56° C | 28% | 1002.9 hPa | - | - | - | - |
| 1777880229 | 25.56° C | 28% | 1002.9 hPa | - | - | - | - |
| 1777879338 | 24.44° C | 30% | 1002.8 hPa | - | - | - | - |
| 1777879329 | 24.44° C | 30% | 1002.8 hPa | - | - | - | - |
| 1777878439 | 25° C | 29% | 1002.8 hPa | - | - | - | - |
| 1777878428 | 25° C | 29% | 1002.8 hPa | - | - | - | - |
| 1777877538 | 22.78° C | 33% | 1002.7 hPa | - | - | - | - |
| 1777877528 | 22.78° C | 33% | 1002.7 hPa | - | - | - | - |
| 1777876638 | 22.22° C | 34% | 1002.7 hPa | - | - | - | - |
| 1777876628 | 22.22° C | 34% | 1002.7 hPa | - | - | - | - |
| 1777875738 | 20° C | 38% | 1002.7 hPa | - | - | - | - |
| 1777875728 | 20° C | 38% | 1002.7 hPa | - | - | - | - |
| 1777874838 | 17.22° C | 43% | 1002.7 hPa | - | - | - | - |
| 1777874828 | 17.22° C | 43% | 1002.7 hPa | - | - | - | - |
| 1777873938 | 17.22° C | 41% | 1002.5 hPa | - | - | - | - |
| 1777873928 | 17.22° C | 41% | 1002.5 hPa | - | - | - | - |
| 1777873040 | 20° C | 35% | 1002.5 hPa | - | - | - | - |
| 1777873027 | 20° C | 35% | 1002.5 hPa | - | - | - | - |
| 1777872140 | 17.78° C | 38% | 1002.6 hPa | - | - | - | - |
| 1777872127 | 17.78° C | 38% | 1002.6 hPa | - | - | - | - |
| 1777871253 | 16.67° C | 40% | 1002.7 hPa | - | - | - | - |
* Rain since midnight (hover to see other rain measurements)
** Current wind speed in m/s (hover to see current wind gust speed)